createdAt,value
2022-12-28T00:00:17.622Z,1.67
2022-12-28T00:03:02.393Z,1.69
2022-12-28T00:05:47.057Z,1.68
2022-12-28T00:08:32.028Z,1.71
2022-12-28T00:11:30.609Z,1.71
2022-12-28T00:14:16.201Z,1.71
2022-12-28T00:17:01.242Z,1.70
2022-12-28T00:19:46.176Z,1.71
2022-12-28T00:22:31.299Z,1.70
2022-12-28T00:25:16.391Z,1.70
2022-12-28T00:28:01.871Z,1.70
2022-12-28T00:30:46.974Z,1.64
2022-12-28T00:33:32.112Z,1.67
2022-12-28T00:36:17.250Z,1.64
2022-12-28T00:39:02.653Z,1.64
2022-12-28T00:41:47.589Z,1.63
2022-12-28T00:44:32.656Z,1.61
2022-12-28T00:47:17.547Z,1.64
2022-12-28T00:50:02.676Z,1.63
2022-12-28T00:52:47.438Z,1.62
2022-12-28T00:55:33.867Z,1.54
2022-12-28T00:58:18.634Z,1.59
2022-12-28T01:01:05.120Z,1.59
2022-12-28T01:03:50.223Z,1.58
2022-12-28T01:06:36.063Z,1.61
2022-12-28T01:09:22.724Z,1.60
2022-12-28T01:12:07.547Z,1.59
2022-12-28T01:14:52.432Z,1.62
2022-12-28T01:17:38.550Z,1.59
2022-12-28T01:20:23.520Z,1.58
2022-12-28T01:23:08.327Z,1.58
2022-12-28T01:26:01.340Z,1.58
2022-12-28T01:28:45.963Z,1.58
2022-12-28T01:31:31.678Z,1.57
2022-12-28T01:34:16.438Z,1.58
2022-12-28T01:37:04.130Z,1.58
2022-12-28T01:39:49.044Z,1.59
2022-12-28T01:42:33.822Z,1.59
2022-12-28T01:45:21.569Z,1.61
2022-12-28T01:48:19.314Z,1.56
2022-12-28T01:51:04.662Z,1.51
2022-12-28T01:53:53.422Z,1.48
2022-12-28T01:56:41.626Z,1.48
2022-12-28T01:59:30.618Z,1.47
2022-12-28T02:02:16.296Z,1.49
2022-12-28T02:05:01.962Z,1.49
2022-12-28T02:08:02.595Z,1.49
2022-12-28T02:10:51.468Z,1.49
2022-12-28T02:13:37.321Z,1.48
2022-12-28T02:16:21.817Z,1.48
2022-12-28T02:19:09.123Z,1.48
2022-12-28T02:22:16.251Z,1.51
2022-12-28T02:25:22.432Z,1.47
2022-12-28T02:28:07.296Z,1.53
2022-12-28T02:31:08.003Z,1.52
2022-12-28T02:34:04.984Z,1.54
2022-12-28T02:36:56.817Z,1.55
2022-12-28T02:39:52.978Z,1.56
2022-12-28T02:42:39.020Z,1.56
2022-12-28T02:46:02.183Z,1.57
2022-12-28T02:49:05.476Z,1.58
2022-12-28T02:52:20.798Z,1.58
2022-12-28T02:55:46.187Z,1.58
2022-12-28T02:58:44.133Z,1.60
2022-12-28T03:01:41.253Z,1.59
2022-12-28T03:04:41.659Z,1.64
2022-12-28T03:07:57.475Z,1.61
2022-12-28T03:10:58.204Z,1.63
2022-12-28T03:13:53.082Z,1.64
2022-12-28T03:17:01.714Z,1.65
2022-12-28T03:20:15.225Z,1.65
2022-12-28T03:23:23.742Z,1.63
2022-12-28T03:26:29.993Z,1.66
2022-12-28T03:29:38.601Z,1.66
2022-12-28T03:32:24.137Z,1.70
2022-12-28T03:35:09.554Z,1.71
2022-12-28T03:38:00.584Z,1.69
2022-12-28T03:40:50.157Z,1.71
2022-12-28T03:43:45.919Z,1.72
2022-12-28T03:46:45.064Z,1.74
2022-12-28T03:49:30.865Z,1.72
2022-12-28T03:52:16.357Z,1.75
2022-12-28T03:55:01.297Z,1.73
2022-12-28T03:57:46.903Z,1.72
2022-12-28T04:00:37.880Z,1.72
2022-12-28T04:03:22.864Z,1.70
2022-12-28T04:06:12.382Z,1.69
2022-12-28T04:08:56.960Z,1.66
2022-12-28T04:11:44.558Z,1.63
2022-12-28T04:14:36.883Z,1.61
2022-12-28T04:17:21.885Z,1.59
2022-12-28T04:20:07.618Z,1.56
2022-12-28T04:22:53.286Z,1.58
2022-12-28T04:25:37.944Z,1.56
2022-12-28T04:28:23.293Z,1.59
2022-12-28T04:31:38.668Z,1.61
2022-12-28T04:34:31.762Z,1.60
2022-12-28T04:37:23.552Z,1.60
2022-12-28T04:40:08.539Z,1.61
2022-12-28T04:42:53.340Z,1.65
2022-12-28T04:45:38.584Z,1.61
2022-12-28T04:48:23.984Z,1.62
2022-12-28T04:51:21.027Z,1.61
2022-12-28T04:54:05.875Z,1.62
2022-12-28T04:56:50.662Z,1.59
2022-12-28T04:59:36.438Z,1.62
2022-12-28T05:02:21.465Z,1.64
2022-12-28T05:05:06.716Z,1.63
2022-12-28T05:07:51.477Z,1.64
2022-12-28T05:10:36.375Z,1.64
2022-12-28T05:13:21.207Z,1.65
2022-12-28T05:16:06.929Z,1.63
2022-12-28T05:18:52.221Z,1.62
2022-12-28T05:21:37.336Z,1.61
2022-12-28T05:24:21.807Z,1.62
2022-12-28T05:27:06.877Z,1.60
2022-12-28T05:29:51.621Z,1.64
2022-12-28T05:32:36.191Z,1.64
2022-12-28T05:35:20.928Z,1.65
2022-12-28T05:38:05.657Z,1.60
2022-12-28T05:40:50.487Z,1.60
2022-12-28T05:43:35.101Z,1.58
2022-12-28T05:46:21.082Z,1.56
2022-12-28T05:49:08.266Z,1.54
2022-12-28T05:51:53.204Z,1.55
2022-12-28T05:54:38.106Z,1.52
2022-12-28T05:57:23.080Z,1.54
2022-12-28T06:00:08.075Z,1.52
2022-12-28T06:02:58.692Z,1.49
2022-12-28T06:05:43.534Z,1.44
2022-12-28T06:08:28.729Z,1.38
2022-12-28T06:11:14.755Z,1.36
2022-12-28T06:14:00.213Z,1.35
2022-12-28T06:16:45.179Z,1.31
2022-12-28T06:19:30.295Z,1.31
2022-12-28T06:22:14.852Z,1.30
2022-12-28T06:24:59.431Z,1.23
2022-12-28T06:27:43.934Z,1.22
2022-12-28T06:30:28.622Z,1.22
2022-12-28T06:33:13.612Z,1.21
2022-12-28T06:35:59.366Z,1.22
2022-12-28T06:38:45.591Z,1.15
2022-12-28T06:41:31.332Z,1.05
2022-12-28T06:44:15.964Z,0.96
2022-12-28T06:47:00.772Z,0.97
2022-12-28T06:49:45.481Z,0.97
2022-12-28T06:52:32.478Z,0.99
2022-12-28T06:55:17.894Z,0.96
2022-12-28T06:58:07.836Z,1.01
2022-12-28T07:01:11.079Z,1.00
2022-12-28T07:03:57.869Z,0.91
2022-12-28T07:07:04.129Z,0.95
2022-12-28T07:09:48.898Z,1.00
2022-12-28T07:12:34.163Z,0.99
2022-12-28T07:15:19.804Z,0.85
2022-12-28T07:18:20.827Z,0.72
2022-12-28T07:21:41.347Z,0.66
2022-12-28T07:24:28.611Z,0.62
2022-12-28T07:27:23.495Z,0.64
2022-12-28T07:30:14.566Z,0.67
2022-12-28T07:33:06.257Z,0.71
2022-12-28T07:36:02.773Z,0.81
2022-12-28T07:38:51.454Z,0.91
2022-12-28T07:41:36.380Z,1.00
2022-12-28T07:44:26.691Z,1.02
2022-12-28T07:47:15.462Z,1.15
2022-12-28T07:50:03.599Z,1.26
2022-12-28T07:53:04.238Z,1.22
2022-12-28T07:55:59.931Z,1.31
2022-12-28T07:58:56.655Z,1.33
2022-12-28T08:01:44.740Z,1.41
2022-12-28T08:04:29.782Z,1.45
2022-12-28T08:07:14.996Z,1.51
2022-12-28T08:09:59.523Z,1.58
2022-12-28T08:12:46.744Z,1.75
2022-12-28T08:15:32.018Z,2.00
2022-12-28T08:18:17.272Z,1.96
2022-12-28T08:21:05.099Z,1.97
2022-12-28T08:23:51.413Z,1.97
2022-12-28T08:26:41.781Z,1.98
2022-12-28T08:29:26.321Z,1.97
2022-12-28T08:32:11.088Z,1.94
2022-12-28T08:34:56.343Z,1.90
2022-12-28T08:37:41.400Z,1.83
2022-12-28T08:40:29.317Z,1.80
2022-12-28T08:43:13.891Z,1.74
2022-12-28T08:45:59.259Z,1.82
2022-12-28T08:48:45.261Z,1.88
2022-12-28T08:51:39.753Z,2.00
2022-12-28T08:54:24.585Z,2.01
2022-12-28T08:57:09.961Z,2.13
2022-12-28T08:59:54.678Z,2.17
2022-12-28T09:02:39.834Z,2.25
2022-12-28T09:05:24.494Z,2.25
2022-12-28T09:08:09.733Z,2.23
2022-12-28T09:11:05.240Z,2.12
2022-12-28T09:13:49.846Z,2.09
2022-12-28T09:16:36.189Z,2.13
2022-12-28T09:19:23.818Z,2.14
2022-12-28T09:22:09.431Z,2.20
2022-12-28T09:24:56.434Z,2.12
2022-12-28T09:27:41.516Z,1.97
2022-12-28T09:30:26.545Z,2.03
2022-12-28T09:33:31.225Z,1.96
2022-12-28T09:36:22.265Z,1.88
2022-12-28T09:39:16.673Z,1.91
2022-12-28T09:42:23.512Z,1.99
2022-12-28T09:45:11.444Z,2.03
2022-12-28T09:48:06.693Z,1.98
2022-12-28T09:50:52.366Z,1.91
2022-12-28T09:53:37.253Z,2.03
2022-12-28T09:56:28.182Z,2.06
2022-12-28T09:59:25.892Z,1.99
2022-12-28T10:02:22.151Z,2.19
2022-12-28T10:05:07.516Z,2.36
2022-12-28T10:07:53.965Z,2.47
2022-12-28T10:10:45.270Z,2.28
2022-12-28T10:13:54.029Z,2.23
2022-12-28T10:16:44.032Z,2.20
2022-12-28T10:19:37.627Z,2.36
2022-12-28T10:22:24.559Z,2.48
2022-12-28T10:25:18.681Z,2.53
2022-12-28T10:28:07.636Z,2.66
2022-12-28T10:31:05.632Z,2.79
2022-12-28T10:33:53.732Z,2.90
2022-12-28T10:36:39.972Z,3.00
2022-12-28T10:39:32.551Z,3.04
2022-12-28T10:42:23.303Z,3.10
2022-12-28T10:45:46.367Z,3.01
2022-12-28T10:48:35.376Z,2.84
2022-12-28T10:51:24.673Z,2.83
2022-12-28T10:54:28.104Z,2.95
2022-12-28T10:57:38.259Z,2.99
2022-12-28T11:00:30.642Z,3.01
2022-12-28T11:03:23.080Z,3.03
2022-12-28T11:06:34.283Z,2.95
2022-12-28T11:09:26.913Z,2.98
2022-12-28T11:12:24.123Z,3.18
2022-12-28T11:15:20.185Z,3.36
2022-12-28T11:18:16.044Z,3.39
2022-12-28T11:21:01.215Z,3.31
2022-12-28T11:23:48.554Z,3.36
2022-12-28T11:26:44.408Z,3.39
2022-12-28T11:29:31.749Z,3.43
2022-12-28T11:32:23.316Z,3.40
2022-12-28T11:35:24.329Z,3.45
2022-12-28T11:38:31.400Z,3.74
2022-12-28T11:41:31.762Z,3.89
2022-12-28T11:44:43.319Z,3.93
2022-12-28T11:47:33.462Z,3.59
2022-12-28T11:50:34.058Z,3.72
2022-12-28T11:53:44.857Z,3.73
2022-12-28T11:56:36.029Z,3.78
2022-12-28T11:59:22.253Z,3.62
2022-12-28T12:02:19.364Z,3.51
2022-12-28T12:05:36.762Z,3.54
2022-12-28T12:08:30.653Z,3.60
2022-12-28T12:11:19.252Z,3.64
2022-12-28T12:14:04.924Z,3.72
2022-12-28T12:16:53.407Z,3.76
2022-12-28T12:19:42.358Z,3.81
2022-12-28T12:22:35.695Z,3.72
2022-12-28T12:25:23.582Z,3.61
2022-12-28T12:28:30.741Z,3.44
2022-12-28T12:31:24.076Z,3.29
2022-12-28T12:34:19.743Z,3.14
2022-12-28T12:37:10.880Z,3.22
2022-12-28T12:40:13.102Z,3.27
2022-12-28T12:43:19.718Z,3.31
2022-12-28T12:46:34.880Z,3.29
2022-12-28T12:49:35.187Z,3.39
2022-12-28T12:52:53.493Z,3.44
2022-12-28T12:55:38.411Z,3.44
2022-12-28T12:58:58.101Z,3.43
2022-12-28T13:01:56.411Z,3.27
2022-12-28T13:04:46.993Z,3.28
2022-12-28T13:07:33.101Z,3.26
2022-12-28T13:10:33.312Z,3.21
2022-12-28T13:13:35.554Z,3.14
2022-12-28T13:16:30.511Z,3.04
2022-12-28T13:19:24.788Z,2.97
2022-12-28T13:22:32.880Z,2.84
2022-12-28T13:25:23.607Z,2.73
2022-12-28T13:28:20.212Z,2.64
2022-12-28T13:31:10.767Z,2.54
2022-12-28T13:34:02.879Z,2.44
2022-12-28T13:36:48.811Z,2.36
2022-12-28T13:39:40.044Z,2.22
2022-12-28T13:42:36.234Z,2.09
2022-12-28T13:45:22.339Z,2.01
2022-12-28T13:48:07.693Z,1.94
2022-12-28T13:50:52.833Z,1.98
2022-12-28T13:53:37.762Z,1.94
2022-12-28T13:56:23.383Z,1.89
2022-12-28T13:59:13.478Z,1.82
2022-12-28T14:01:58.127Z,1.77
2022-12-28T14:04:58.541Z,1.76
2022-12-28T14:07:43.543Z,1.78
2022-12-28T14:10:28.627Z,1.77
2022-12-28T14:13:13.649Z,1.75
2022-12-28T14:15:59.162Z,1.77
2022-12-28T14:18:44.889Z,1.76
2022-12-28T14:21:33.204Z,1.69
2022-12-28T14:24:17.989Z,1.62
2022-12-28T14:27:03.169Z,1.54
2022-12-28T14:29:48.001Z,1.45
2022-12-28T14:32:37.586Z,1.40
2022-12-28T14:35:27.996Z,1.31
2022-12-28T14:38:19.027Z,1.21
2022-12-28T14:41:04.890Z,1.07
2022-12-28T14:43:53.024Z,1.01
2022-12-28T14:46:40.317Z,0.90
2022-12-28T14:49:28.273Z,0.77
2022-12-28T14:52:15.615Z,0.63
2022-12-28T14:55:53.084Z,0.46
2022-12-28T14:58:52.436Z,0.32
2022-12-28T15:01:43.570Z,0.30
2022-12-28T15:04:28.524Z,0.23
2022-12-28T15:07:13.004Z,0.20
2022-12-28T15:09:58.105Z,0.25
2022-12-28T15:12:42.678Z,0.24
2022-12-28T15:15:27.275Z,0.18
2022-12-28T15:18:12.271Z,0.15
2022-12-28T15:21:01.917Z,0.08
2022-12-28T15:23:52.017Z,0.01
2022-12-28T15:26:37.465Z,0.02
2022-12-28T15:29:47.520Z,0.03
2022-12-28T15:32:27.956Z,0.04
2022-12-28T15:35:12.830Z,0.04
2022-12-28T15:37:57.729Z,0.00
2022-12-28T15:40:42.595Z,0.04
2022-12-28T15:43:27.612Z,0.02
2022-12-28T15:46:12.323Z,-0.02
2022-12-28T15:48:57.131Z,-0.06
2022-12-28T15:51:42.215Z,-0.12
2022-12-28T15:54:26.899Z,-0.21
2022-12-28T15:57:13.505Z,-0.18
2022-12-28T15:59:58.485Z,-0.24
2022-12-28T16:02:43.885Z,-0.25
2022-12-28T16:05:28.452Z,-0.27
2022-12-28T16:08:13.480Z,-0.30
2022-12-28T16:11:08.941Z,-0.28
2022-12-28T16:13:56.335Z,-0.28
2022-12-28T16:16:42.639Z,-0.23
2022-12-28T16:19:27.747Z,-0.27
2022-12-28T16:22:12.343Z,-0.22
2022-12-28T16:24:57.382Z,-0.19
2022-12-28T16:27:41.789Z,-0.17
2022-12-28T16:30:27.478Z,-0.19
2022-12-28T16:33:12.398Z,-0.17
2022-12-28T16:35:59.701Z,-0.19
2022-12-28T16:38:44.525Z,-0.19
2022-12-28T16:41:36.307Z,-0.05
2022-12-28T16:44:23.997Z,-0.01
2022-12-28T16:47:10.863Z,-0.05
2022-12-28T16:49:55.634Z,-0.07
2022-12-28T16:52:40.404Z,-0.07
2022-12-28T16:55:25.069Z,-0.12
2022-12-28T16:58:09.554Z,-0.11
2022-12-28T17:00:54.498Z,-0.08
2022-12-28T17:03:39.203Z,-0.03
2022-12-28T17:06:23.938Z,-0.02
2022-12-28T17:09:08.655Z,0.04
2022-12-28T17:11:53.523Z,0.09
2022-12-28T17:14:38.352Z,0.17
2022-12-28T17:17:22.889Z,0.15
2022-12-28T17:20:08.365Z,0.20
2022-12-28T17:22:53.355Z,0.22
2022-12-28T17:25:38.302Z,0.25
2022-12-28T17:28:23.404Z,0.26
2022-12-28T17:31:11.988Z,0.29
2022-12-28T17:33:57.659Z,0.31
2022-12-28T17:36:42.365Z,0.32
2022-12-28T17:39:27.492Z,0.36
2022-12-28T17:42:12.339Z,0.36
2022-12-28T17:44:57.195Z,0.40
2022-12-28T17:47:42.280Z,0.40
2022-12-28T17:50:27.026Z,0.42
2022-12-28T17:53:11.281Z,0.42
2022-12-28T17:55:59.464Z,0.46
2022-12-28T17:58:44.528Z,0.46
2022-12-28T18:01:29.681Z,0.46
2022-12-28T18:04:14.812Z,0.46
2022-12-28T18:06:59.387Z,0.47
2022-12-28T18:09:43.885Z,0.46
2022-12-28T18:12:28.515Z,0.48
2022-12-28T18:15:15.753Z,0.54
2022-12-28T18:18:00.919Z,0.54
2022-12-28T18:21:02.331Z,0.60
2022-12-28T18:23:48.050Z,0.61
2022-12-28T18:26:32.963Z,0.59
2022-12-28T18:29:17.816Z,0.67
2022-12-28T18:32:02.285Z,0.66
2022-12-28T18:34:47.388Z,0.69
2022-12-28T18:37:32.265Z,0.74
2022-12-28T18:40:18.270Z,0.77
2022-12-28T18:43:04.160Z,0.77
2022-12-28T18:45:59.827Z,0.80
2022-12-28T18:48:44.778Z,0.85
2022-12-28T18:51:29.895Z,0.88
2022-12-28T18:54:14.653Z,0.90
2022-12-28T18:57:00.902Z,0.99
2022-12-28T18:59:45.386Z,1.00
2022-12-28T19:02:30.401Z,1.02
2022-12-28T19:05:14.975Z,1.06
2022-12-28T19:07:59.540Z,1.05
2022-12-28T19:10:48.539Z,1.07
2022-12-28T19:13:35.614Z,1.08
2022-12-28T19:16:26.985Z,1.11
2022-12-28T19:19:16.583Z,1.13
2022-12-28T19:22:01.414Z,1.16
2022-12-28T19:24:45.888Z,1.11
2022-12-28T19:27:30.590Z,1.09
2022-12-28T19:30:15.387Z,1.07
2022-12-28T19:32:59.916Z,0.99
2022-12-28T19:35:45.027Z,0.93
2022-12-28T19:38:29.669Z,0.92
2022-12-28T19:41:15.602Z,0.83
2022-12-28T19:44:00.861Z,0.68
2022-12-28T19:46:47.768Z,0.52
2022-12-28T19:49:32.837Z,0.40
2022-12-28T19:52:17.355Z,0.38
2022-12-28T19:55:02.789Z,0.37
2022-12-28T19:57:47.318Z,0.38
2022-12-28T20:00:31.975Z,0.39
2022-12-28T20:03:16.887Z,0.47
2022-12-28T20:06:17.448Z,0.42
2022-12-28T20:09:02.270Z,0.32
2022-12-28T20:11:47.540Z,0.21
2022-12-28T20:14:32.322Z,0.12
2022-12-28T20:17:17.127Z,0.08
2022-12-28T20:20:01.826Z,0.03
2022-12-28T20:22:46.280Z,-0.06
2022-12-28T20:25:30.912Z,-0.05
2022-12-28T20:28:15.855Z,-0.10
2022-12-28T20:31:05.346Z,-0.14
2022-12-28T20:33:50.289Z,-0.16
2022-12-28T20:36:35.174Z,-0.05
2022-12-28T20:39:20.032Z,-0.07
2022-12-28T20:42:23.567Z,-0.08
2022-12-28T20:45:08.699Z,-0.19
2022-12-28T20:47:53.228Z,-0.27
2022-12-28T20:50:37.742Z,-0.43
2022-12-28T20:53:22.517Z,-0.53
2022-12-28T20:56:08.439Z,-0.61
2022-12-28T20:58:53.498Z,-0.62
2022-12-28T21:01:39.924Z,-0.67
2022-12-28T21:04:25.455Z,-0.72
2022-12-28T21:07:10.129Z,-0.80
2022-12-28T21:09:54.992Z,-0.81
2022-12-28T21:12:40.186Z,-0.83
2022-12-28T21:15:25.130Z,-0.81
2022-12-28T21:18:10.209Z,-0.78
2022-12-28T21:20:56.672Z,-0.78
2022-12-28T21:23:41.783Z,-0.71
2022-12-28T21:26:26.450Z,-0.64
2022-12-28T21:29:10.943Z,-0.48
2022-12-28T21:31:56.515Z,-0.40
2022-12-28T21:34:41.272Z,-0.31
2022-12-28T21:37:34.866Z,-0.29
2022-12-28T21:40:19.692Z,-0.15
2022-12-28T21:43:04.631Z,-0.10
2022-12-28T21:46:01.648Z,-0.04
2022-12-28T21:48:46.977Z,0.06
2022-12-28T21:51:34.274Z,0.13
2022-12-28T21:54:21.070Z,0.23
2022-12-28T21:57:05.857Z,0.31
2022-12-28T21:59:51.660Z,0.38
2022-12-28T22:02:55.071Z,0.46
2022-12-28T22:05:45.604Z,0.49
2022-12-28T22:08:50.371Z,0.55
2022-12-28T22:11:53.773Z,0.63
2022-12-28T22:14:38.689Z,0.67
2022-12-28T22:17:23.157Z,0.72
2022-12-28T22:20:09.533Z,0.76
2022-12-28T22:22:55.933Z,0.79
2022-12-28T22:25:40.929Z,0.80
2022-12-28T22:28:25.627Z,0.74
2022-12-28T22:31:10.349Z,0.74
2022-12-28T22:33:55.161Z,0.75
2022-12-28T22:36:39.995Z,0.68
2022-12-28T22:39:25.012Z,0.65
2022-12-28T22:42:10.097Z,0.59
2022-12-28T22:44:55.071Z,0.60
2022-12-28T22:47:40.803Z,0.54
2022-12-28T22:50:26.585Z,0.53
2022-12-28T22:53:11.293Z,0.43
2022-12-28T22:55:59.996Z,0.40
2022-12-28T22:58:45.504Z,0.26
2022-12-28T23:01:30.628Z,0.15
2022-12-28T23:04:15.557Z,0.11
2022-12-28T23:07:03.941Z,0.08
2022-12-28T23:09:49.171Z,0.06
2022-12-28T23:12:33.904Z,0.01
2022-12-28T23:15:19.287Z,-0.03
2022-12-28T23:18:22.675Z,-0.04
2022-12-28T23:21:35.661Z,0.02
2022-12-28T23:24:39.103Z,0.07
2022-12-28T23:27:26.388Z,0.04
2022-12-28T23:30:18.290Z,-0.02
2022-12-28T23:33:03.154Z,-0.07
2022-12-28T23:35:48.091Z,-0.07
2022-12-28T23:38:33.615Z,-0.13
2022-12-28T23:41:37.144Z,-0.09
2022-12-28T23:44:23.903Z,-0.15
2022-12-28T23:47:08.677Z,-0.20
2022-12-28T23:49:53.392Z,-0.15
2022-12-28T23:52:38.522Z,-0.16
2022-12-28T23:55:23.527Z,-0.22
2022-12-28T23:58:08.285Z,-0.25
